Time;durP1;ratioP1;P1;durP2;ratioP2;P2;SDS_P1;SDS_P2;PMS_P1;PMS_P2;Temp;Humidity;BMP_temperature;BMP_pressure;BME280_temperature;BME280_humidity;BME280_pressure;Samples;Min_cycle;Max_cycle;Signal;HPM_P1;HPM_P2
2022/10/03 00:02:15;;;;;;;8.50;3.88;;;11.50;99.90;;;;;;5050710;28;20029;-56
2022/10/03 00:05:26;;;;;;;5.68;4.10;;;11.50;99.90;;;;;;5050982;28;20405;-54
2022/10/03 00:08:26;;;;;;;4.88;4.35;;;11.60;99.90;;;;;;5050315;28;20109;-56
2022/10/03 00:11:11;;;;;;;12.70;4.35;;;11.50;99.90;;;;;;5050742;28;20041;-55
2022/10/03 00:13:57;;;;;;;5.70;4.10;;;11.50;99.90;;;;;;5050711;28;20124;-56
2022/10/03 00:16:41;;;;;;;5.10;3.90;;;11.60;99.90;;;;;;5050898;28;20021;-56
2022/10/03 00:19:48;;;;;;;5.80;4.13;;;11.50;99.90;;;;;;5050515;28;20025;-53
2022/10/03 00:22:46;;;;;;;6.40;4.95;;;11.40;99.90;;;;;;5047926;28;20029;-53
2022/10/03 00:25:34;;;;;;;8.65;4.70;;;11.40;99.90;;;;;;5048079;28;20021;-54
2022/10/03 00:28:02;;;;;;;5.32;4.70;;;11.40;99.90;;;;;;5050066;28;20029;-53
2022/10/03 00:30:41;;;;;;;5.03;4.32;;;11.40;99.90;;;;;;5050576;28;20087;-55
2022/10/03 00:33:51;;;;;;;6.13;5.15;;;11.40;99.90;;;;;;5049102;28;20480;-54
2022/10/03 00:36:41;;;;;;;7.65;4.70;;;11.30;99.90;;;;;;5047757;28;20099;-51
2022/10/03 00:39:18;;;;;;;7.10;3.97;;;11.40;99.90;;;;;;5047754;28;20029;-55
2022/10/03 00:41:59;;;;;;;6.93;4.95;;;11.40;99.90;;;;;;5059429;28;20404;-53
2022/10/03 00:44:46;;;;;;;5.50;4.75;;;11.40;99.90;;;;;;5050434;28;20384;-55
2022/10/03 00:47:36;;;;;;;5.40;4.90;;;11.30;99.90;;;;;;5050249;28;20029;-51
2022/10/03 00:50:23;;;;;;;8.13;5.30;;;11.30;99.90;;;;;;5048712;28;20391;-52
2022/10/03 00:53:00;;;;;;;5.90;5.10;;;11.30;99.90;;;;;;5050167;28;20416;-53
2022/10/03 00:55:35;;;;;;;6.75;4.70;;;11.30;99.90;;;;;;5050287;28;20116;-53
2022/10/03 00:58:34;;;;;;;5.40;4.90;;;11.30;99.90;;;;;;5049954;28;20542;-52
2022/10/03 01:01:20;;;;;;;6.60;4.88;;;11.20;99.90;;;;;;5049978;28;20025;-57
2022/10/03 01:03:59;;;;;;;7.60;5.07;;;11.20;99.90;;;;;;5049926;28;20017;-53
2022/10/03 01:06:25;;;;;;;5.43;4.85;;;11.30;99.90;;;;;;5050066;28;20021;-56
2022/10/03 01:09:11;;;;;;;6.15;5.55;;;11.20;99.90;;;;;;5050674;28;20053;-55
2022/10/03 01:11:46;;;;;;;7.65;5.32;;;11.20;99.90;;;;;;5054208;28;20032;-56
2022/10/03 01:14:48;;;;;;;8.68;6.38;;;11.10;99.90;;;;;;5052914;28;20021;-56
2022/10/03 01:17:34;;;;;;;7.13;5.35;;;11.00;99.90;;;;;;5054458;28;20049;-55
2022/10/03 01:20:03;;;;;;;10.25;5.97;;;11.00;99.90;;;;;;5053952;28;20071;-56
2022/10/03 01:22:41;;;;;;;8.45;5.95;;;11.00;99.90;;;;;;5053852;28;20047;-55
2022/10/03 01:25:06;;;;;;;6.82;6.07;;;10.90;99.90;;;;;;5053924;28;20021;-56
2022/10/03 01:30:54;;;;;;;8.27;7.03;;;10.80;99.90;;;;;;5053730;28;20106;-56
2022/10/03 01:33:52;;;;;;;10.45;7.88;;;10.70;99.90;;;;;;5053710;28;20123;-56
2022/10/03 01:36:32;;;;;;;10.73;7.57;;;10.70;99.90;;;;;;5053761;28;20066;-53
2022/10/03 01:39:11;;;;;;;8.90;7.25;;;10.70;99.90;;;;;;5053529;28;20021;-55
2022/10/03 01:41:57;;;;;;;9.60;6.25;;;10.80;99.90;;;;;;5053598;28;20029;-55
2022/10/03 01:44:28;;;;;;;9.52;6.13;;;10.90;99.90;;;;;;5053814;28;20687;-55
2022/10/03 01:47:08;;;;;;;9.23;6.35;;;10.90;99.90;;;;;;5053460;28;20032;-56
2022/10/03 01:50:20;;;;;;;10.68;6.25;;;10.90;99.90;;;;;;5053406;28;20023;-56
2022/10/03 01:53:13;;;;;;;9.98;6.50;;;11.00;99.90;;;;;;5050660;28;20052;-53
2022/10/03 01:55:54;;;;;;;7.88;6.25;;;10.90;99.90;;;;;;5050710;28;20043;-52
2022/10/03 01:58:57;;;;;;;8.90;5.18;;;11.00;99.90;;;;;;5052815;28;20064;-52
2022/10/03 02:01:35;;;;;;;8.82;6.43;;;11.00;99.90;;;;;;5053251;28;20031;-55
2022/10/03 02:04:23;;;;;;;11.15;5.93;;;10.90;99.90;;;;;;5053067;28;20060;-54
2022/10/03 02:07:26;;;;;;;13.10;5.82;;;10.90;99.90;;;;;;5053001;28;20387;-54
2022/10/03 02:10:18;;;;;;;11.40;5.80;;;10.90;99.90;;;;;;5050495;28;20048;-52
2022/10/03 02:13:27;;;;;;;12.48;5.78;;;10.80;99.90;;;;;;5053140;28;20357;-53
2022/10/03 02:16:11;;;;;;;13.30;6.28;;;10.70;99.90;;;;;;5052341;28;20033;-51
2022/10/03 02:18:46;;;;;;;10.25;5.47;;;10.70;99.90;;;;;;5053001;28;20479;-53
2022/10/03 02:21:20;;;;;;;6.10;5.35;;;10.70;99.90;;;;;;5052719;28;20040;-52
2022/10/03 02:23:47;;;;;;;8.07;6.38;;;10.70;99.90;;;;;;5052764;28;20399;-53
2022/10/03 02:26:31;;;;;;;10.23;5.90;;;10.70;99.90;;;;;;5052894;28;20064;-53
2022/10/03 02:29:10;;;;;;;6.90;4.82;;;10.70;99.90;;;;;;5052656;28;20048;-54
2022/10/03 02:32:09;;;;;;;12.27;5.55;;;10.70;99.90;;;;;;5052751;28;20033;-53
2022/10/03 02:35:13;;;;;;;13.10;5.68;;;10.70;99.90;;;;;;5052732;28;20036;-52
2022/10/03 02:38:16;;;;;;;18.30;6.45;;;10.70;99.90;;;;;;5052726;28;20017;-55
2022/10/03 02:41:23;;;;;;;7.25;4.78;;;10.70;99.90;;;;;;5052517;28;20028;-56
2022/10/03 02:44:09;;;;;;;8.50;4.93;;;10.70;99.90;;;;;;5052419;28;20047;-52
2022/10/03 02:47:00;;;;;;;10.00;5.35;;;10.80;99.90;;;;;;5052505;28;20025;-55
2022/10/03 02:49:57;;;;;;;9.82;5.32;;;10.80;99.90;;;;;;5052486;28;20025;-54
2022/10/03 02:52:26;;;;;;;16.98;6.60;;;10.80;99.90;;;;;;5052273;28;20029;-55
2022/10/03 02:54:58;;;;;;;11.30;6.13;;;10.80;99.90;;;;;;5052115;28;20036;-54
2022/10/03 02:57:38;;;;;;;11.18;6.03;;;10.70;99.90;;;;;;5052359;28;20017;-56
2022/10/03 03:00:10;;;;;;;12.25;6.50;;;10.80;99.90;;;;;;5052075;28;20227;-56
2022/10/03 03:02:45;;;;;;;8.20;7.05;;;10.70;99.90;;;;;;5052027;28;20035;-54
2022/10/03 03:05:47;;;;;;;14.70;7.20;;;10.70;99.90;;;;;;5052124;28;20091;-55
2022/10/03 03:08:51;;;;;;;9.65;6.30;;;10.80;99.90;;;;;;5051655;28;20460;-55
2022/10/03 03:11:17;;;;;;;11.43;6.40;;;10.90;99.90;;;;;;5052091;28;20400;-55
2022/10/03 03:13:49;;;;;;;10.07;6.57;;;10.90;99.90;;;;;;5051931;28;20040;-55
2022/10/03 03:16:56;;;;;;;8.50;7.40;;;11.00;99.90;;;;;;5051905;28;20025;-54
2022/10/03 03:19:43;;;;;;;13.55;7.10;;;10.90;99.90;;;;;;5049034;28;20048;-54
2022/10/03 03:22:55;;;;;;;8.45;7.45;;;10.90;99.90;;;;;;5051409;28;20041;-55
2022/10/03 03:25:44;;;;;;;11.38;7.88;;;11.00;99.90;;;;;;5051711;28;20052;-54
2022/10/03 03:28:38;;;;;;;16.52;7.70;;;11.00;99.90;;;;;;5051665;28;20082;-55
2022/10/03 03:31:28;;;;;;;12.50;8.80;;;10.90;99.90;;;;;;5051400;28;20029;-56
2022/10/03 03:34:21;;;;;;;10.70;7.47;;;10.90;99.90;;;;;;5051301;28;20502;-56
2022/10/03 03:37:07;;;;;;;14.57;7.78;;;10.90;99.90;;;;;;5051287;28;20021;-54
2022/10/03 03:39:45;;;;;;;11.30;7.30;;;10.90;99.90;;;;;;5051447;28;20037;-58
2022/10/03 03:42:44;;;;;;;16.42;6.78;;;10.90;99.90;;;;;;5051248;28;20115;-54
2022/10/03 03:45:30;;;;;;;11.23;7.10;;;11.00;99.90;;;;;;5051151;28;20025;-56
2022/10/03 03:48:17;;;;;;;12.65;7.60;;;10.90;99.90;;;;;;5050951;28;20029;-54
2022/10/03 03:51:20;;;;;;;15.52;7.45;;;11.00;99.90;;;;;;5051134;28;20024;-51
2022/10/03 03:53:56;;;;;;;14.18;7.70;;;10.90;99.90;;;;;;5050889;28;20051;-57
2022/10/03 03:56:43;;;;;;;15.57;7.85;;;11.00;99.90;;;;;;5051042;28;20032;-57
2022/10/03 03:59:12;;;;;;;12.80;7.90;;;10.90;99.90;;;;;;5050787;28;20021;-56
2022/10/03 04:01:58;;;;;;;13.05;7.38;;;10.90;99.90;;;;;;5050767;28;20024;-57
2022/10/03 04:04:35;;;;;;;20.88;8.38;;;10.90;99.90;;;;;;5050490;28;20481;-56
2022/10/03 04:07:17;;;;;;;11.45;6.88;;;10.80;99.90;;;;;;5050220;28;20060;-52
2022/10/03 04:10:04;;;;;;;10.35;7.45;;;10.80;99.90;;;;;;5050705;28;20087;-54
2022/10/03 04:12:42;;;;;;;16.77;7.78;;;10.90;99.90;;;;;;5050911;28;20032;-54
2022/10/03 04:15:26;;;;;;;14.43;8.15;;;10.90;99.90;;;;;;5050502;28;20025;-55
2022/10/03 04:21:27;;;;;;;17.40;7.10;;;10.90;99.90;;;;;;5050552;28;20036;-52
2022/10/03 04:24:22;;;;;;;15.82;7.18;;;10.90;99.90;;;;;;5050555;28;20048;-55
2022/10/03 04:27:10;;;;;;;10.05;7.38;;;10.90;99.90;;;;;;5050439;28;20056;-53
2022/10/03 04:30:03;;;;;;;11.60;7.38;;;10.90;99.90;;;;;;5050644;28;20025;-55
2022/10/03 04:32:56;;;;;;;13.30;8.15;;;10.90;99.90;;;;;;5050537;28;20032;-52
2022/10/03 04:35:37;;;;;;;14.63;7.47;;;10.90;99.90;;;;;;5049056;28;20074;-55
2022/10/03 04:38:14;;;;;;;13.32;6.47;;;10.90;99.90;;;;;;5050294;28;20445;-55
2022/10/03 04:41:01;;;;;;;12.73;7.38;;;10.90;99.90;;;;;;5050325;28;20616;-54
2022/10/03 04:43:45;;;;;;;14.32;7.07;;;10.80;99.90;;;;;;5049107;28;20021;-55
2022/10/03 04:46:21;;;;;;;14.63;8.70;;;10.80;99.90;;;;;;5050324;28;20029;-54
2022/10/03 04:49:12;;;;;;;9.80;6.43;;;10.80;99.90;;;;;;5050052;28;20021;-54
2022/10/03 04:52:15;;;;;;;12.00;7.78;;;10.90;99.90;;;;;;5050330;28;20357;-52
2022/10/03 04:55:19;;;;;;;16.67;7.20;;;10.90;99.90;;;;;;5050091;28;20528;-56
2022/10/03 04:58:14;;;;;;;14.73;7.83;;;10.90;99.90;;;;;;5049952;28;20504;-54
2022/10/03 05:01:22;;;;;;;18.80;14.43;;;10.80;99.90;;;;;;5050159;28;20271;-53
2022/10/03 05:04:14;;;;;;;25.98;7.47;;;10.70;99.90;;;;;;5049888;28;20017;-57
2022/10/03 05:07:12;;;;;;;11.23;7.25;;;10.80;99.90;;;;;;5050098;28;20029;-52
2022/10/03 05:09:49;;;;;;;22.90;8.93;;;10.70;99.90;;;;;;5047560;28;20037;-55
2022/10/03 05:12:54;;;;;;;13.82;7.78;;;10.70;99.90;;;;;;5050012;28;20060;-53
2022/10/03 05:15:22;;;;;;;;;;;10.70;99.90;;;;;;5048912;28;20045;-53
2022/10/03 05:18:06;;;;;;;18.70;9.32;;;10.70;99.90;;;;;;5048431;28;20311;-53
2022/10/03 05:20:57;;;;;;;14.43;9.20;;;10.80;99.90;;;;;;5048822;28;20128;-53
2022/10/03 05:23:51;;;;;;;13.98;8.77;;;10.70;99.90;;;;;;5049828;28;20025;-54
2022/10/03 05:26:27;;;;;;;15.77;9.88;;;10.70;99.90;;;;;;5049193;28;20032;-56
2022/10/03 05:29:14;;;;;;;12.93;8.77;;;10.70;99.90;;;;;;5049682;28;20084;-55
2022/10/03 05:31:47;;;;;;;12.77;10.30;;;10.80;99.90;;;;;;5050019;28;20021;-54
2022/10/03 05:34:32;;;;;;;14.00;9.60;;;10.90;99.90;;;;;;5049768;28;20083;-56
2022/10/03 05:37:15;;;;;;;12.85;10.43;;;10.80;99.90;;;;;;5049688;28;20021;-53
2022/10/03 05:40:11;;;;;;;14.18;10.85;;;10.90;99.90;;;;;;5049955;28;20112;-55
2022/10/03 05:42:41;;;;;;;19.95;12.20;;;10.80;99.90;;;;;;5048345;28;20392;-52
2022/10/03 05:45:57;;;;;;;24.23;16.45;;;10.80;99.90;;;;;;5049648;28;20056;-54
2022/10/03 05:48:47;;;;;;;13.82;11.63;;;10.70;99.90;;;;;;5047102;28;20014;-54
2022/10/03 05:51:32;;;;;;;18.80;13.25;;;10.70;99.90;;;;;;5049593;28;20029;-54
2022/10/03 05:54:04;;;;;;;21.23;13.45;;;10.60;99.90;;;;;;5049357;28;20044;-55
2022/10/03 05:56:30;;;;;;;20.15;12.73;;;10.60;99.90;;;;;;5053139;28;20143;-54
2022/10/03 05:59:15;;;;;;;18.85;13.32;;;10.70;99.90;;;;;;5053205;28;20025;-53
2022/10/03 06:01:59;;;;;;;17.33;13.88;;;10.70;99.90;;;;;;5051738;28;20468;-52
2022/10/03 06:04:43;;;;;;;19.30;12.70;;;10.60;99.90;;;;;;5053245;28;20025;-54
2022/10/03 06:07:18;;;;;;;16.77;12.98;;;10.70;99.90;;;;;;5053055;28;20271;-51
2022/10/03 06:10:07;;;;;;;26.08;13.98;;;10.80;99.90;;;;;;5052949;28;20484;-52
2022/10/03 06:12:46;;;;;;;19.95;13.93;;;10.80;99.90;;;;;;5053195;28;20078;-53
2022/10/03 06:15:38;;;;;;;18.15;12.52;;;10.80;99.90;;;;;;5053171;28;20025;-53
2022/10/03 06:18:07;;;;;;;20.98;12.45;;;10.80;99.90;;;;;;5052854;28;20106;-54
2022/10/03 06:20:54;;;;;;;20.92;13.38;;;10.70;99.90;;;;;;5051648;28;20032;-56
2022/10/03 06:23:28;;;;;;;21.40;12.75;;;10.80;99.90;;;;;;5052885;28;20387;-57
2022/10/03 06:26:23;;;;;;;28.58;12.05;;;10.80;99.90;;;;;;5052424;28;20056;-55
2022/10/03 06:28:55;;;;;;;23.40;15.00;;;10.90;99.90;;;;;;5051696;28;20381;-57
2022/10/03 06:31:27;;;;;;;17.48;10.95;;;10.80;99.90;;;;;;5052401;28;20040;-54
2022/10/03 06:34:11;;;;;;;17.75;11.15;;;10.80;99.90;;;;;;5052372;28;20507;-57
2022/10/03 06:36:55;;;;;;;16.58;10.70;;;10.80;99.90;;;;;;5052005;28;20040;-55
2022/10/03 06:39:52;;;;;;;20.38;11.45;;;10.80;99.90;;;;;;5052351;28;20021;-53
2022/10/03 06:42:36;;;;;;;12.65;9.65;;;10.80;99.90;;;;;;5052155;28;20535;-55
2022/10/03 06:45:16;;;;;;;;;;;10.90;99.90;;;;;;5052593;28;20437;-56
2022/10/03 06:47:56;;;;;;;12.10;7.53;;;10.90;99.90;;;;;;5052315;28;19908;-54
2022/10/03 06:50:27;;;;;;;17.58;8.48;;;10.90;99.90;;;;;;5052276;28;20090;-57
2022/10/03 06:53:14;;;;;;;16.88;11.60;;;10.90;99.90;;;;;;5052011;28;20061;-58
2022/10/03 06:56:01;;;;;;;23.95;12.73;;;10.90;99.90;;;;;;5050802;28;20016;-56
2022/10/03 06:58:32;;;;;;;26.27;12.88;;;10.70;99.90;;;;;;5052179;28;20096;-52
2022/10/03 07:01:00;;;;;;;21.10;12.32;;;10.70;99.90;;;;;;5050708;28;20028;-57
2022/10/03 07:03:43;;;;;;;20.33;10.02;;;10.70;99.90;;;;;;5052231;28;20028;-53
2022/10/03 07:06:12;;;;;;;28.30;10.50;;;10.90;99.90;;;;;;5051205;28;20460;-55
2022/10/03 07:09:13;;;;;;;12.57;7.72;;;10.90;99.90;;;;;;5051614;28;20288;-54
2022/10/03 07:12:05;;;;;;;30.65;16.00;;;11.00;99.90;;;;;;5050388;28;20041;-52
2022/10/03 07:14:39;;;;;;;23.65;12.43;;;11.00;99.90;;;;;;5051430;28;20435;-52
2022/10/03 07:17:14;;;;;;;19.90;9.75;;;11.00;99.90;;;;;;5051696;28;20033;-55
2022/10/03 07:19:55;;;;;;;46.78;18.95;;;11.00;99.90;;;;;;5051825;28;20021;-53
2022/10/03 07:22:41;;;;;;;17.23;9.07;;;10.90;99.90;;;;;;5051617;28;20033;-52
2022/10/03 07:25:13;;;;;;;17.85;10.43;;;11.00;99.90;;;;;;5051573;28;20017;-56
2022/10/03 07:27:55;;;;;;;21.70;9.52;;;11.00;99.90;;;;;;5051771;28;20021;-53
2022/10/03 07:30:23;;;;;;;24.08;8.75;;;11.00;99.90;;;;;;5051745;28;20025;-52
2022/10/03 07:33:22;;;;;;;16.00;8.60;;;11.00;99.90;;;;;;5051398;28;20120;-53
2022/10/03 07:39:46;;;;;;;18.90;9.50;;;11.20;99.90;;;;;;5051476;28;20550;-53
2022/10/03 07:42:21;;;;;;;17.08;8.93;;;11.30;99.90;;;;;;5051331;28;20025;-52
2022/10/03 07:45:09;;;;;;;10.90;7.82;;;11.50;99.90;;;;;;5051141;28;20017;-54
2022/10/03 07:47:41;;;;;;;21.13;12.90;;;11.70;99.90;;;;;;5049909;28;20056;-53
2022/10/03 07:50:31;;;;;;;23.63;12.73;;;11.60;99.90;;;;;;5051252;28;20021;-52
2022/10/03 07:53:00;;;;;;;12.48;8.27;;;11.70;99.90;;;;;;5051067;28;20013;-55
2022/10/03 07:55:46;;;;;;;21.15;10.75;;;11.80;99.90;;;;;;5051151;28;20083;-54
2022/10/03 07:58:30;;;;;;;22.33;11.30;;;11.70;99.90;;;;;;5051064;28;20029;-53
2022/10/03 08:01:13;;;;;;;20.02;9.35;;;11.80;99.90;;;;;;5050804;28;20440;-54
2022/10/03 08:03:57;;;;;;;22.95;12.25;;;12.00;99.90;;;;;;5049714;28;20017;-56
2022/10/03 08:06:36;;;;;;;25.42;10.50;;;11.80;99.90;;;;;;5050894;28;20021;-51
2022/10/03 08:09:20;;;;;;;30.42;11.40;;;11.60;99.90;;;;;;5050428;28;20102;-55
2022/10/03 08:12:24;;;;;;;21.75;11.25;;;11.70;99.90;;;;;;5049229;28;20028;-56
2022/10/03 08:15:28;;;;;;;16.92;9.07;;;11.80;99.90;;;;;;5050170;28;20093;-52
2022/10/03 08:18:21;;;;;;;22.58;8.93;;;11.90;99.90;;;;;;5049196;28;20068;-54
2022/10/03 08:20:52;;;;;;;13.60;7.50;;;11.90;99.90;;;;;;5048816;28;20465;-53
2022/10/03 08:23:36;;;;;;;20.73;10.68;;;12.10;99.90;;;;;;5050590;28;20515;-53
2022/10/03 08:26:40;;;;;;;16.25;8.65;;;12.00;99.90;;;;;;5050271;28;20043;-53
2022/10/03 08:29:11;;;;;;;28.30;9.73;;;12.10;99.90;;;;;;5050380;28;20474;-53
2022/10/03 08:31:43;;;;;;;22.92;10.65;;;12.10;99.90;;;;;;5050364;28;20391;-53
2022/10/03 08:34:36;;;;;;;15.13;8.88;;;12.20;99.90;;;;;;5050396;28;20028;-52
2022/10/03 08:37:30;;;;;;;13.00;9.32;;;12.10;99.90;;;;;;5050059;28;20025;-51
2022/10/03 08:40:18;;;;;;;17.40;10.55;;;12.00;99.90;;;;;;5050135;28;20373;-53
2022/10/03 08:43:04;;;;;;;18.50;8.77;;;12.20;99.90;;;;;;5049976;28;20021;-51
2022/10/03 08:45:50;;;;;;;13.35;8.60;;;12.30;99.90;;;;;;5050149;28;20079;-53
2022/10/03 08:48:39;;;;;;;16.15;7.93;;;12.20;99.90;;;;;;5050407;28;20477;-57
2022/10/03 08:51:28;;;;;;;15.10;7.88;;;12.20;99.90;;;;;;5050152;28;20036;-52
2022/10/03 08:53:54;;;;;;;12.30;7.30;;;12.20;99.90;;;;;;5049335;28;20033;-53
2022/10/03 08:56:55;;;;;;;14.57;6.55;;;12.30;99.90;;;;;;5050104;28;20021;-53
2022/10/03 08:59:42;;;;;;;15.30;6.68;;;12.60;99.90;;;;;;5049989;28;20260;-52
2022/10/03 09:02:26;;;;;;;15.93;7.10;;;12.60;99.90;;;;;;5049883;28;20025;-51
2022/10/03 09:05:10;;;;;;;15.35;7.80;;;12.70;99.90;;;;;;5048726;28;20021;-52
2022/10/03 09:08:04;;;;;;;40.45;18.92;;;12.80;99.90;;;;;;5049830;28;20040;-55
2022/10/03 09:10:51;;;;;;;20.38;7.65;;;13.10;99.90;;;;;;5048924;28;20045;-57
2022/10/03 09:13:38;;;;;;;17.02;9.00;;;13.20;99.90;;;;;;5049667;28;20384;-51
2022/10/03 09:16:27;;;;;;;25.45;12.50;;;13.60;99.90;;;;;;5050188;28;20052;-56
2022/10/03 09:19:08;;;;;;;15.20;6.53;;;13.70;99.90;;;;;;5049215;28;20160;-55
2022/10/03 09:22:01;;;;;;;20.60;9.65;;;13.00;99.90;;;;;;5049784;28;20025;-55
2022/10/03 09:24:29;;;;;;;17.95;9.15;;;13.10;99.90;;;;;;5049688;28;20025;-50
2022/10/03 09:27:23;;;;;;;15.63;6.40;;;13.00;99.90;;;;;;5050025;28;20013;-55
2022/10/03 09:30:22;;;;;;;25.77;7.03;;;12.60;99.90;;;;;;5050212;28;20375;-51
2022/10/03 09:33:10;;;;;;;24.63;11.90;;;12.40;99.90;;;;;;5053778;28;20384;-53
2022/10/03 09:35:59;;;;;;;39.55;16.15;;;12.20;99.90;;;;;;5053937;28;20446;-52
2022/10/03 09:38:56;;;;;;;26.33;9.88;;;12.00;99.90;;;;;;5053531;28;20017;-54
2022/10/03 09:41:56;;;;;;;10.55;5.43;;;12.30;99.90;;;;;;5051628;28;20021;-54
2022/10/03 09:44:40;;;;;;;18.65;9.77;;;12.60;99.90;;;;;;5053097;28;20031;-53
2022/10/03 09:47:59;;;;;;;20.95;9.20;;;12.50;99.90;;;;;;5053514;28;20025;-55
2022/10/03 09:51:05;;;;;;;16.50;9.15;;;12.40;99.90;;;;;;5070465;28;20029;-57
2022/10/03 09:53:36;;;;;;;21.20;9.57;;;12.50;99.90;;;;;;5005584;28;20137;-54
2022/10/03 09:56:29;;;;;;;11.40;5.30;;;12.60;99.90;;;;;;5055218;28;20122;-53
2022/10/03 09:58:58;;;;;;;14.52;7.82;;;12.80;99.90;;;;;;5052643;28;20369;-56
2022/10/03 10:01:35;;;;;;;45.60;13.32;;;13.50;99.90;;;;;;5054116;28;20048;-55
2022/10/03 10:04:32;;;;;;;14.50;5.95;;;13.70;99.90;;;;;;5053860;28;20025;-54
2022/10/03 10:07:13;;;;;;;10.60;4.88;;;13.90;99.90;;;;;;5052098;28;20009;-52
2022/10/03 10:09:47;;;;;;;21.98;8.80;;;13.40;99.90;;;;;;5052725;28;20174;-52
2022/10/03 10:12:25;;;;;;;14.30;8.00;;;13.20;99.90;;;;;;5053004;28;20491;-54
2022/10/03 10:15:08;;;;;;;20.75;10.43;;;13.20;99.90;;;;;;5051492;28;20095;-52
2022/10/03 10:17:46;;;;;;;10.73;4.60;;;13.00;99.90;;;;;;5053085;28;20052;-55
2022/10/03 10:20:40;;;;;;;19.92;11.23;;;13.00;99.90;;;;;;5051326;28;20040;-54
2022/10/03 10:23:12;;;;;;;16.77;6.78;;;13.20;99.90;;;;;;5052642;28;20452;-55
2022/10/03 10:26:22;;;;;;;15.88;5.65;;;13.20;99.90;;;;;;5024103;28;20439;-55
2022/10/03 10:29:10;;;;;;;13.55;5.63;;;13.00;99.90;;;;;;5027853;28;20053;-53
2022/10/03 10:32:13;;;;;;;8.18;4.63;;;13.00;99.90;;;;;;5054514;28;20134;-54
2022/10/03 10:34:57;;;;;;;29.15;8.38;;;13.40;99.90;;;;;;5041362;28;20029;-51
2022/10/03 10:38:14;;;;;;;7.32;3.72;;;13.50;99.90;;;;;;5041506;28;20033;-52
2022/10/03 10:40:58;;;;;;;11.68;5.32;;;13.80;99.90;;;;;;5038927;28;20393;-55
2022/10/03 10:43:29;;;;;;;12.93;4.15;;;14.00;99.90;;;;;;5043233;28;20086;-53
2022/10/03 10:46:26;;;;;;;12.70;3.53;;;13.70;99.90;;;;;;5052343;28;20035;-54
2022/10/03 10:49:19;;;;;;;14.70;4.90;;;13.50;99.90;;;;;;5043956;28;20029;-55
2022/10/03 10:52:13;;;;;;;13.18;4.40;;;13.40;99.90;;;;;;5060710;28;20017;-53
2022/10/03 10:55:16;;;;;;;13.00;5.33;;;13.40;99.90;;;;;;5059537;28;20294;-55
2022/10/03 10:58:08;;;;;;;14.50;5.40;;;13.40;99.90;;;;;;5042521;28;20096;-53
2022/10/03 11:00:49;;;;;;;32.75;13.25;;;13.30;99.90;;;;;;5051852;28;20025;-51
2022/10/03 11:03:39;;;;;;;12.48;6.38;;;13.40;99.90;;;;;;5041847;28;20028;-53
2022/10/03 11:06:35;;;;;;;5.47;3.50;;;13.50;99.90;;;;;;5052266;28;20029;-54
2022/10/03 11:09:30;;;;;;;10.73;4.95;;;14.40;99.90;;;;;;5052092;28;20047;-51
2022/10/03 11:12:20;;;;;;;8.30;3.33;;;16.00;99.90;;;;;;5055120;28;20040;-53
2022/10/03 11:15:03;;;;;;;14.65;4.25;;;17.30;99.90;;;;;;5041105;28;20104;-54
2022/10/03 11:17:38;;;;;;;8.65;5.88;;;16.00;99.90;;;;;;5040846;28;20465;-51
2022/10/03 11:20:31;;;;;;;14.20;4.57;;;15.00;99.90;;;;;;5040764;28;20036;-53
2022/10/03 11:23:39;;;;;;;11.27;4.43;;;14.70;99.90;;;;;;5039942;28;20121;-51
2022/10/03 11:26:32;;;;;;;15.70;4.10;;;14.10;99.90;;;;;;5045935;28;20307;-54
2022/10/03 11:29:38;;;;;;;12.45;6.90;;;13.60;99.90;;;;;;5039658;28;20029;-52
2022/10/03 11:32:23;;;;;;;17.60;4.38;;;13.20;99.90;;;;;;5040330;28;20461;-53
2022/10/03 11:35:29;;;;;;;15.75;5.13;;;13.30;99.90;;;;;;5040092;28;20115;-51
2022/10/03 11:38:28;;;;;;;36.15;16.08;;;13.40;99.90;;;;;;5040458;28;20382;-56
2022/10/03 11:41:25;;;;;;;13.00;6.22;;;13.40;99.90;;;;;;5039345;28;20068;-52
2022/10/03 11:43:58;;;;;;;10.35;3.75;;;13.70;99.90;;;;;;5040077;28;20111;-52
2022/10/03 11:46:58;;;;;;;51.03;22.52;;;13.80;99.90;;;;;;5039935;28;20427;-55
2022/10/03 11:49:29;;;;;;;21.45;8.60;;;13.60;99.90;;;;;;5042202;28;20133;-53
2022/10/03 11:52:30;;;;;;;31.50;14.15;;;14.00;99.90;;;;;;5039199;28;20025;-54
2022/10/03 11:55:04;;;;;;;20.95;7.13;;;14.10;99.90;;;;;;5039013;28;20488;-56
2022/10/03 11:57:36;;;;;;;20.42;11.25;;;14.10;99.90;;;;;;5040252;28;20029;-54
2022/10/03 12:00:03;;;;;;;13.45;5.95;;;14.00;99.90;;;;;;5040568;28;20808;-55
2022/10/03 12:02:36;;;;;;;9.90;4.40;;;13.90;99.90;;;;;;5039584;28;20044;-52
2022/10/03 12:05:38;;;;;;;13.77;6.07;;;14.00;99.90;;;;;;5050211;28;20107;-51
2022/10/03 12:11:17;;;;;;;15.23;7.78;;;14.80;99.90;;;;;;5039435;28;20565;-54
2022/10/03 12:14:04;;;;;;;10.07;6.18;;;15.10;99.90;;;;;;5038088;28;20040;-55
2022/10/03 12:16:56;;;;;;;31.13;7.78;;;15.00;99.90;;;;;;5039070;28;20021;-54
2022/10/03 12:19:39;;;;;;;30.83;12.82;;;14.90;99.90;;;;;;5039296;28;20021;-53
2022/10/03 12:22:16;;;;;;;18.55;6.95;;;14.80;99.90;;;;;;5039561;28;20033;-55
2022/10/03 12:24:44;;;;;;;19.55;10.38;;;14.40;99.90;;;;;;5039812;28;20463;-52
2022/10/03 12:27:38;;;;;;;6.55;3.78;;;14.80;99.90;;;;;;5038598;28;20495;-52
2022/10/03 12:30:15;;;;;;;8.85;3.92;;;15.00;99.90;;;;;;5056015;28;20139;-52
2022/10/03 12:33:28;;;;;;;10.00;3.30;;;15.10;99.90;;;;;;5057311;28;20056;-52
2022/10/03 12:36:01;;;;;;;7.05;4.15;;;14.80;99.90;;;;;;5015533;28;20091;-51
2022/10/03 12:39:12;;;;;;;15.48;5.38;;;14.40;99.90;;;;;;5039498;28;20123;-56
2022/10/03 12:42:03;;;;;;;9.07;3.88;;;14.30;99.90;;;;;;5062515;28;20032;-52
2022/10/03 12:44:49;;;;;;;12.45;4.45;;;14.20;99.90;;;;;;5067825;28;20067;-55
2022/10/03 12:47:28;;;;;;;5.75;3.60;;;14.00;99.90;;;;;;5023260;28;20033;-54
2022/10/03 12:50:27;;;;;;;15.43;4.30;;;14.10;99.90;;;;;;5050113;28;20044;-53
2022/10/03 12:53:16;;;;;;;6.88;3.78;;;14.20;99.90;;;;;;5049601;28;20033;-56
2022/10/03 12:56:10;;;;;;;18.50;8.60;;;14.00;99.90;;;;;;5069856;28;20027;-54
2022/10/03 12:59:16;;;;;;;10.15;3.47;;;14.00;99.90;;;;;;5069693;28;20024;-53
2022/10/03 13:01:54;;;;;;;14.10;4.00;;;14.10;99.90;;;;;;5070247;28;20017;-56
2022/10/03 13:04:51;;;;;;;7.30;4.13;;;14.00;99.90;;;;;;5069726;28;20433;-56
2022/10/03 13:07:23;;;;;;;11.18;3.58;;;14.30;99.90;;;;;;5072581;28;20384;-55
2022/10/03 13:10:01;;;;;;;12.70;3.00;;;14.30;99.90;;;;;;5072977;28;20110;-53
2022/10/03 13:13:07;;;;;;;10.30;3.78;;;14.70;99.90;;;;;;5074526;28;20032;-53
2022/10/03 13:16:02;;;;;;;17.58;4.50;;;14.90;99.90;;;;;;5072762;28;20041;-55
2022/10/03 13:18:41;;;;;;;7.82;3.30;;;14.50;99.90;;;;;;5074533;28;20423;-55
2022/10/03 13:21:16;;;;;;;13.57;5.28;;;14.70;99.90;;;;;;5073796;28;20166;-55
2022/10/03 13:23:58;;;;;;;9.57;3.55;;;14.60;99.90;;;;;;5072748;28;20507;-54
2022/10/03 13:26:38;;;;;;;16.08;4.20;;;14.50;99.90;;;;;;5073926;28;20028;-53
2022/10/03 13:29:19;;;;;;;9.38;3.60;;;15.00;99.90;;;;;;5073827;28;20024;-52
2022/10/03 13:32:15;;;;;;;6.90;3.20;;;15.00;99.90;;;;;;5074213;28;20032;-57
2022/10/03 13:38:42;;;;;;;6.03;2.58;;;17.50;98.00;;;;;;5073724;28;20044;-60
2022/10/03 13:41:32;;;;;;;9.52;2.88;;;19.90;94.50;;;;;;5073684;28;20106;-57
2022/10/03 13:44:11;;;;;;;14.32;2.83;;;20.40;91.40;;;;;;5073510;28;20257;-55
2022/10/03 13:47:12;;;;;;;15.48;4.95;;;18.70;92.90;;;;;;5073138;28;20387;-55
2022/10/03 13:50:03;;;;;;;22.40;13.40;;;19.10;91.30;;;;;;5070618;28;20488;-55
2022/10/03 13:52:44;;;;;;;11.65;4.05;;;20.40;91.20;;;;;;5073315;28;20025;-56
2022/10/03 13:55:17;;;;;;;31.55;9.30;;;20.20;90.70;;;;;;5073358;28;20052;-56
2022/10/03 13:58:04;;;;;;;38.05;11.10;;;18.80;90.30;;;;;;5073925;28;20031;-55
2022/10/03 14:00:47;;;;;;;26.63;15.50;;;18.00;91.70;;;;;;5073258;28;20159;-55
2022/10/03 14:03:36;;;;;;;12.82;7.40;;;18.20;91.80;;;;;;5073125;28;20028;-57
2022/10/03 14:06:14;;;;;;;7.35;3.20;;;19.70;90.60;;;;;;5072443;28;20494;-55
2022/10/03 14:08:43;;;;;;;11.57;2.78;;;20.30;89.00;;;;;;5072884;28;20047;-56
2022/10/03 14:11:41;;;;;;;6.88;2.78;;;21.30;84.90;;;;;;5072518;28;20465;-53
2022/10/03 14:14:35;;;;;;;5.55;2.78;;;20.10;84.00;;;;;;5073650;28;20021;-57
2022/10/03 14:17:12;;;;;;;4.82;2.10;;;18.80;90.60;;;;;;5072570;28;20035;-54
2022/10/03 14:20:04;;;;;;;5.55;2.17;;;18.40;89.90;;;;;;5073912;28;20015;-56
2022/10/03 14:22:36;;;;;;;5.20;2.35;;;17.90;90.40;;;;;;5044610;28;20028;-53
2022/10/03 14:25:19;;;;;;;9.07;2.60;;;17.20;90.50;;;;;;5043969;28;20112;-57
2022/10/03 14:27:59;;;;;;;6.30;2.85;;;16.70;91.10;;;;;;5062229;28;20159;-54
2022/10/03 14:30:34;;;;;;;11.95;2.92;;;16.30;92.10;;;;;;5043658;28;20619;-58
2022/10/03 14:33:16;;;;;;;12.18;3.70;;;16.20;93.40;;;;;;5041899;28;20419;-58